sensor_id;sensor_type;location;lat;lon;timestamp;P1;durP1;ratioP1;P2;durP2;ratioP2
22282;SDS011;11310;51.528;21.204;2022-11-03T00:01:39;17.17;;;5.57;;
22282;SDS011;11310;51.528;21.204;2022-11-03T00:04:09;17.30;;;5.63;;
22282;SDS011;11310;51.528;21.204;2022-11-03T00:06:40;15.40;;;5.32;;
22282;SDS011;11310;51.528;21.204;2022-11-03T00:09:11;15.82;;;6.07;;
22282;SDS011;11310;51.528;21.204;2022-11-03T00:11:42;13.80;;;5.25;;
22282;SDS011;11310;51.528;21.204;2022-11-03T00:14:13;13.20;;;5.70;;
22282;SDS011;11310;51.528;21.204;2022-11-03T00:16:42;14.77;;;5.35;;
22282;SDS011;11310;51.528;21.204;2022-11-03T00:19:12;11.60;;;5.20;;
22282;SDS011;11310;51.528;21.204;2022-11-03T00:21:42;14.23;;;5.47;;
22282;SDS011;11310;51.528;21.204;2022-11-03T00:24:11;15.15;;;5.30;;
22282;SDS011;11310;51.528;21.204;2022-11-03T00:26:40;13.07;;;5.40;;
22282;SDS011;11310;51.528;21.204;2022-11-03T00:29:10;19.02;;;5.97;;
22282;SDS011;11310;51.528;21.204;2022-11-03T00:31:41;21.75;;;5.40;;
22282;SDS011;11310;51.528;21.204;2022-11-03T00:34:11;13.23;;;4.90;;
22282;SDS011;11310;51.528;21.204;2022-11-03T00:36:40;12.50;;;5.20;;
22282;SDS011;11310;51.528;21.204;2022-11-03T00:39:11;12.73;;;5.30;;
22282;SDS011;11310;51.528;21.204;2022-11-03T00:41:40;14.85;;;4.80;;
22282;SDS011;11310;51.528;21.204;2022-11-03T00:44:09;15.40;;;5.30;;
22282;SDS011;11310;51.528;21.204;2022-11-03T00:46:41;11.82;;;5.22;;
22282;SDS011;11310;51.528;21.204;2022-11-03T00:49:10;15.40;;;4.80;;
22282;SDS011;11310;51.528;21.204;2022-11-03T00:51:38;15.20;;;4.90;;
22282;SDS011;11310;51.528;21.204;2022-11-03T00:54:07;14.60;;;5.20;;
22282;SDS011;11310;51.528;21.204;2022-11-03T00:56:38;11.98;;;4.97;;
22282;SDS011;11310;51.528;21.204;2022-11-03T00:59:08;11.80;;;4.78;;
22282;SDS011;11310;51.528;21.204;2022-11-03T01:01:37;13.05;;;4.53;;
22282;SDS011;11310;51.528;21.204;2022-11-03T01:04:14;14.05;;;5.47;;
22282;SDS011;11310;51.528;21.204;2022-11-03T01:07:02;17.00;;;5.30;;
22282;SDS011;11310;51.528;21.204;2022-11-03T01:09:33;13.45;;;4.72;;
22282;SDS011;11310;51.528;21.204;2022-11-03T01:12:04;16.95;;;5.13;;
22282;SDS011;11310;51.528;21.204;2022-11-03T01:14:36;13.02;;;5.43;;
22282;SDS011;11310;51.528;21.204;2022-11-03T01:17:07;14.20;;;5.72;;
22282;SDS011;11310;51.528;21.204;2022-11-03T01:19:41;14.50;;;5.75;;
22282;SDS011;11310;51.528;21.204;2022-11-03T01:22:10;15.37;;;5.67;;
22282;SDS011;11310;51.528;21.204;2022-11-03T01:24:40;11.10;;;4.72;;
22282;SDS011;11310;51.528;21.204;2022-11-03T01:27:11;13.98;;;4.82;;
22282;SDS011;11310;51.528;21.204;2022-11-03T01:29:41;12.77;;;5.00;;
22282;SDS011;11310;51.528;21.204;2022-11-03T01:32:09;11.85;;;4.85;;
22282;SDS011;11310;51.528;21.204;2022-11-03T01:34:38;12.55;;;5.03;;
22282;SDS011;11310;51.528;21.204;2022-11-03T01:37:09;10.57;;;4.07;;
22282;SDS011;11310;51.528;21.204;2022-11-03T01:39:38;12.48;;;3.75;;
22282;SDS011;11310;51.528;21.204;2022-11-03T01:42:08;9.35;;;3.88;;
22282;SDS011;11310;51.528;21.204;2022-11-03T01:44:39;13.63;;;4.00;;
22282;SDS011;11310;51.528;21.204;2022-11-03T01:47:15;12.40;;;3.95;;
22282;SDS011;11310;51.528;21.204;2022-11-03T01:49:50;8.55;;;3.60;;
22282;SDS011;11310;51.528;21.204;2022-11-03T01:52:25;8.63;;;3.33;;
22282;SDS011;11310;51.528;21.204;2022-11-03T01:55:01;8.23;;;3.22;;
22282;SDS011;11310;51.528;21.204;2022-11-03T01:57:33;8.50;;;3.50;;
22282;SDS011;11310;51.528;21.204;2022-11-03T02:00:07;9.48;;;3.80;;
22282;SDS011;11310;51.528;21.204;2022-11-03T02:02:40;12.15;;;3.95;;
22282;SDS011;11310;51.528;21.204;2022-11-03T02:05:09;8.90;;;3.33;;
22282;SDS011;11310;51.528;21.204;2022-11-03T02:07:43;10.15;;;3.47;;
22282;SDS011;11310;51.528;21.204;2022-11-03T02:10:17;9.52;;;3.80;;
22282;SDS011;11310;51.528;21.204;2022-11-03T02:12:45;8.48;;;3.25;;
22282;SDS011;11310;51.528;21.204;2022-11-03T02:15:16;9.18;;;3.83;;
22282;SDS011;11310;51.528;21.204;2022-11-03T02:17:49;10.93;;;3.28;;
22282;SDS011;11310;51.528;21.204;2022-11-03T02:20:20;10.82;;;3.08;;
22282;SDS011;11310;51.528;21.204;2022-11-03T02:25:47;12.25;;;3.63;;
22282;SDS011;11310;51.528;21.204;2022-11-03T02:28:20;10.95;;;3.45;;
22282;SDS011;11310;51.528;21.204;2022-11-03T02:30:54;12.55;;;3.90;;
22282;SDS011;11310;51.528;21.204;2022-11-03T02:33:31;8.32;;;3.47;;
22282;SDS011;11310;51.528;21.204;2022-11-03T02:36:09;9.05;;;3.47;;
22282;SDS011;11310;51.528;21.204;2022-11-03T02:38:44;11.85;;;3.45;;
22282;SDS011;11310;51.528;21.204;2022-11-03T02:41:17;11.65;;;3.78;;
22282;SDS011;11310;51.528;21.204;2022-11-03T02:43:48;12.27;;;3.88;;
22282;SDS011;11310;51.528;21.204;2022-11-03T02:46:18;9.20;;;3.72;;
22282;SDS011;11310;51.528;21.204;2022-11-03T02:48:48;11.38;;;3.67;;
22282;SDS011;11310;51.528;21.204;2022-11-03T02:51:18;9.57;;;3.30;;
22282;SDS011;11310;51.528;21.204;2022-11-03T02:53:48;10.80;;;4.07;;
22282;SDS011;11310;51.528;21.204;2022-11-03T02:56:30;7.45;;;3.08;;
22282;SDS011;11310;51.528;21.204;2022-11-03T02:59:03;10.82;;;3.88;;
22282;SDS011;11310;51.528;21.204;2022-11-03T03:01:37;9.35;;;4.15;;
22282;SDS011;11310;51.528;21.204;2022-11-03T03:04:15;9.15;;;3.50;;
22282;SDS011;11310;51.528;21.204;2022-11-03T03:06:53;11.93;;;3.47;;
22282;SDS011;11310;51.528;21.204;2022-11-03T03:09:31;11.23;;;3.58;;
22282;SDS011;11310;51.528;21.204;2022-11-03T03:12:10;13.43;;;4.45;;
22282;SDS011;11310;51.528;21.204;2022-11-03T03:17:13;12.30;;;4.55;;
22282;SDS011;11310;51.528;21.204;2022-11-03T03:19:47;10.55;;;3.88;;
22282;SDS011;11310;51.528;21.204;2022-11-03T03:22:19;10.32;;;3.90;;
22282;SDS011;11310;51.528;21.204;2022-11-03T03:24:52;9.43;;;3.65;;
22282;SDS011;11310;51.528;21.204;2022-11-03T03:27:28;8.27;;;3.20;;
22282;SDS011;11310;51.528;21.204;2022-11-03T03:30:02;7.55;;;3.08;;
22282;SDS011;11310;51.528;21.204;2022-11-03T03:32:34;11.43;;;3.63;;
22282;SDS011;11310;51.528;21.204;2022-11-03T03:35:07;8.32;;;3.30;;
22282;SDS011;11310;51.528;21.204;2022-11-03T03:37:44;10.10;;;3.47;;
22282;SDS011;11310;51.528;21.204;2022-11-03T03:40:16;10.68;;;3.88;;
22282;SDS011;11310;51.528;21.204;2022-11-03T03:42:51;8.77;;;2.95;;
22282;SDS011;11310;51.528;21.204;2022-11-03T03:45:20;9.25;;;3.50;;
22282;SDS011;11310;51.528;21.204;2022-11-03T03:47:51;10.43;;;2.95;;
22282;SDS011;11310;51.528;21.204;2022-11-03T03:50:24;9.73;;;3.05;;
22282;SDS011;11310;51.528;21.204;2022-11-03T03:52:58;6.95;;;2.92;;
22282;SDS011;11310;51.528;21.204;2022-11-03T03:55:32;10.40;;;3.35;;
22282;SDS011;11310;51.528;21.204;2022-11-03T03:58:05;9.20;;;3.40;;
22282;SDS011;11310;51.528;21.204;2022-11-03T04:03:07;10.48;;;3.78;;
22282;SDS011;11310;51.528;21.204;2022-11-03T04:05:42;10.73;;;3.58;;
22282;SDS011;11310;51.528;21.204;2022-11-03T04:08:11;8.95;;;3.70;;
22282;SDS011;11310;51.528;21.204;2022-11-03T04:10:41;12.35;;;4.38;;
22282;SDS011;11310;51.528;21.204;2022-11-03T04:13:33;15.07;;;5.28;;
22282;SDS011;11310;51.528;21.204;2022-11-03T04:16:18;11.23;;;4.22;;
22282;SDS011;11310;51.528;21.204;2022-11-03T04:19:05;12.52;;;4.88;;
22282;SDS011;11310;51.528;21.204;2022-11-03T04:21:53;9.02;;;4.47;;
22282;SDS011;11310;51.528;21.204;2022-11-03T04:24:39;11.07;;;3.72;;
22282;SDS011;11310;51.528;21.204;2022-11-03T04:27:14;12.60;;;3.72;;
22282;SDS011;11310;51.528;21.204;2022-11-03T04:30:01;17.83;;;3.58;;
22282;SDS011;11310;51.528;21.204;2022-11-03T04:32:34;10.73;;;4.22;;
22282;SDS011;11310;51.528;21.204;2022-11-03T04:35:09;11.63;;;3.63;;
22282;SDS011;11310;51.528;21.204;2022-11-03T04:37:42;8.60;;;3.92;;
22282;SDS011;11310;51.528;21.204;2022-11-03T04:40:14;9.07;;;3.70;;
22282;SDS011;11310;51.528;21.204;2022-11-03T04:42:44;10.25;;;4.00;;
22282;SDS011;11310;51.528;21.204;2022-11-03T04:45:17;14.95;;;4.15;;
22282;SDS011;11310;51.528;21.204;2022-11-03T04:47:50;11.60;;;4.03;;
22282;SDS011;11310;51.528;21.204;2022-11-03T04:50:20;8.88;;;3.67;;
22282;SDS011;11310;51.528;21.204;2022-11-03T04:52:53;13.70;;;3.80;;
22282;SDS011;11310;51.528;21.204;2022-11-03T04:55:24;10.43;;;3.40;;
22282;SDS011;11310;51.528;21.204;2022-11-03T04:57:54;12.07;;;4.45;;
22282;SDS011;11310;51.528;21.204;2022-11-03T05:00:27;9.90;;;4.47;;
22282;SDS011;11310;51.528;21.204;2022-11-03T05:02:56;10.85;;;4.55;;
22282;SDS011;11310;51.528;21.204;2022-11-03T05:05:24;8.35;;;4.13;;
22282;SDS011;11310;51.528;21.204;2022-11-03T05:07:54;8.80;;;4.13;;
22282;SDS011;11310;51.528;21.204;2022-11-03T05:10:26;10.93;;;4.32;;
22282;SDS011;11310;51.528;21.204;2022-11-03T05:12:57;11.15;;;3.72;;
22282;SDS011;11310;51.528;21.204;2022-11-03T05:15:30;12.93;;;4.25;;
22282;SDS011;11310;51.528;21.204;2022-11-03T05:18:12;10.70;;;4.55;;
22282;SDS011;11310;51.528;21.204;2022-11-03T05:20:47;12.38;;;4.30;;
22282;SDS011;11310;51.528;21.204;2022-11-03T05:23:19;18.55;;;5.60;;
22282;SDS011;11310;51.528;21.204;2022-11-03T05:25:51;17.00;;;6.90;;
22282;SDS011;11310;51.528;21.204;2022-11-03T05:28:21;14.63;;;5.22;;
22282;SDS011;11310;51.528;21.204;2022-11-03T05:30:55;12.65;;;5.00;;
22282;SDS011;11310;51.528;21.204;2022-11-03T05:33:25;12.63;;;5.47;;
22282;SDS011;11310;51.528;21.204;2022-11-03T05:38:28;12.23;;;4.22;;
22282;SDS011;11310;51.528;21.204;2022-11-03T05:40:58;10.50;;;4.53;;
22282;SDS011;11310;51.528;21.204;2022-11-03T05:43:28;9.55;;;4.47;;
22282;SDS011;11310;51.528;21.204;2022-11-03T05:46:00;9.27;;;3.60;;
22282;SDS011;11310;51.528;21.204;2022-11-03T05:48:36;9.63;;;3.90;;
22282;SDS011;11310;51.528;21.204;2022-11-03T05:51:13;12.25;;;3.95;;
22282;SDS011;11310;51.528;21.204;2022-11-03T05:53:48;9.98;;;3.88;;
22282;SDS011;11310;51.528;21.204;2022-11-03T05:56:21;14.30;;;4.43;;
22282;SDS011;11310;51.528;21.204;2022-11-03T05:58:53;11.43;;;4.13;;
22282;SDS011;11310;51.528;21.204;2022-11-03T06:01:27;13.02;;;4.85;;
22282;SDS011;11310;51.528;21.204;2022-11-03T06:03:58;12.82;;;4.57;;
22282;SDS011;11310;51.528;21.204;2022-11-03T06:06:35;12.00;;;4.90;;
22282;SDS011;11310;51.528;21.204;2022-11-03T06:09:10;13.18;;;5.10;;
22282;SDS011;11310;51.528;21.204;2022-11-03T06:11:43;12.23;;;5.22;;
22282;SDS011;11310;51.528;21.204;2022-11-03T06:14:13;16.02;;;6.43;;
22282;SDS011;11310;51.528;21.204;2022-11-03T06:16:51;17.33;;;6.47;;
22282;SDS011;11310;51.528;21.204;2022-11-03T06:19:25;13.57;;;6.47;;
22282;SDS011;11310;51.528;21.204;2022-11-03T06:21:57;14.98;;;6.18;;
22282;SDS011;11310;51.528;21.204;2022-11-03T06:24:33;12.70;;;5.47;;
22282;SDS011;11310;51.528;21.204;2022-11-03T06:27:07;20.55;;;7.75;;
22282;SDS011;11310;51.528;21.204;2022-11-03T06:29:40;18.10;;;8.10;;
22282;SDS011;11310;51.528;21.204;2022-11-03T06:32:13;15.52;;;6.18;;
22282;SDS011;11310;51.528;21.204;2022-11-03T06:34:43;13.73;;;6.00;;
22282;SDS011;11310;51.528;21.204;2022-11-03T06:37:18;14.77;;;5.63;;
22282;SDS011;11310;51.528;21.204;2022-11-03T06:39:50;15.15;;;5.90;;
22282;SDS011;11310;51.528;21.204;2022-11-03T06:42:25;13.20;;;5.00;;
22282;SDS011;11310;51.528;21.204;2022-11-03T06:44:59;13.30;;;5.70;;
22282;SDS011;11310;51.528;21.204;2022-11-03T06:47:40;18.73;;;6.15;;
22282;SDS011;11310;51.528;21.204;2022-11-03T06:50:18;18.05;;;7.60;;
22282;SDS011;11310;51.528;21.204;2022-11-03T06:52:51;15.85;;;6.55;;
22282;SDS011;11310;51.528;21.204;2022-11-03T06:55:21;20.40;;;5.90;;
22282;SDS011;11310;51.528;21.204;2022-11-03T06:57:54;14.30;;;6.13;;
22282;SDS011;11310;51.528;21.204;2022-11-03T07:00:26;18.98;;;5.88;;
22282;SDS011;11310;51.528;21.204;2022-11-03T07:03:07;18.52;;;6.10;;
22282;SDS011;11310;51.528;21.204;2022-11-03T07:05:41;27.63;;;8.93;;
22282;SDS011;11310;51.528;21.204;2022-11-03T07:08:14;28.33;;;8.77;;
22282;SDS011;11310;51.528;21.204;2022-11-03T07:10:49;34.72;;;10.27;;
22282;SDS011;11310;51.528;21.204;2022-11-03T07:13:24;21.90;;;8.70;;
22282;SDS011;11310;51.528;21.204;2022-11-03T07:15:54;24.90;;;8.52;;
22282;SDS011;11310;51.528;21.204;2022-11-03T07:18:26;21.02;;;7.28;;
22282;SDS011;11310;51.528;21.204;2022-11-03T07:21:04;16.38;;;5.70;;
22282;SDS011;11310;51.528;21.204;2022-11-03T07:23:52;15.30;;;5.30;;
22282;SDS011;11310;51.528;21.204;2022-11-03T07:26:21;11.30;;;4.95;;
22282;SDS011;11310;51.528;21.204;2022-11-03T07:28:50;10.27;;;4.65;;
22282;SDS011;11310;51.528;21.204;2022-11-03T07:31:21;12.45;;;5.30;;
22282;SDS011;11310;51.528;21.204;2022-11-03T07:33:57;10.73;;;4.72;;
22282;SDS011;11310;51.528;21.204;2022-11-03T07:36:27;12.32;;;5.07;;
22282;SDS011;11310;51.528;21.204;2022-11-03T07:38:59;11.20;;;5.03;;
22282;SDS011;11310;51.528;21.204;2022-11-03T07:41:30;16.77;;;5.57;;
22282;SDS011;11310;51.528;21.204;2022-11-03T07:44:01;12.73;;;5.27;;
22282;SDS011;11310;51.528;21.204;2022-11-03T07:46:30;10.07;;;4.40;;
22282;SDS011;11310;51.528;21.204;2022-11-03T07:49:00;12.50;;;4.63;;
22282;SDS011;11310;51.528;21.204;2022-11-03T07:51:31;13.27;;;5.43;;
22282;SDS011;11310;51.528;21.204;2022-11-03T07:54:02;11.93;;;4.15;;
22282;SDS011;11310;51.528;21.204;2022-11-03T07:56:37;11.73;;;6.07;;
22282;SDS011;11310;51.528;21.204;2022-11-03T07:59:12;11.30;;;4.47;;
22282;SDS011;11310;51.528;21.204;2022-11-03T08:01:44;10.95;;;4.38;;
22282;SDS011;11310;51.528;21.204;2022-11-03T08:04:19;12.18;;;4.15;;
22282;SDS011;11310;51.528;21.204;2022-11-03T08:06:51;12.70;;;4.40;;
22282;SDS011;11310;51.528;21.204;2022-11-03T08:11:51;13.55;;;5.15;;
22282;SDS011;11310;51.528;21.204;2022-11-03T08:14:23;13.73;;;5.00;;
22282;SDS011;11310;51.528;21.204;2022-11-03T08:16:53;11.32;;;3.92;;
22282;SDS011;11310;51.528;21.204;2022-11-03T08:19:24;10.68;;;4.70;;
22282;SDS011;11310;51.528;21.204;2022-11-03T08:21:53;11.07;;;4.07;;
22282;SDS011;11310;51.528;21.204;2022-11-03T08:24:24;9.85;;;4.35;;
22282;SDS011;11310;51.528;21.204;2022-11-03T08:26:57;9.02;;;3.90;;
22282;SDS011;11310;51.528;21.204;2022-11-03T08:29:26;14.10;;;4.68;;
22282;SDS011;11310;51.528;21.204;2022-11-03T08:31:55;9.82;;;4.03;;
22282;SDS011;11310;51.528;21.204;2022-11-03T08:34:25;12.75;;;3.83;;
22282;SDS011;11310;51.528;21.204;2022-11-03T08:36:55;14.75;;;4.35;;
22282;SDS011;11310;51.528;21.204;2022-11-03T08:39:24;8.95;;;4.10;;
22282;SDS011;11310;51.528;21.204;2022-11-03T08:41:54;13.60;;;4.32;;
22282;SDS011;11310;51.528;21.204;2022-11-03T08:44:23;9.80;;;3.88;;
22282;SDS011;11310;51.528;21.204;2022-11-03T08:46:52;12.57;;;3.70;;
22282;SDS011;11310;51.528;21.204;2022-11-03T08:49:21;8.63;;;3.90;;
22282;SDS011;11310;51.528;21.204;2022-11-03T08:51:51;14.48;;;4.40;;
22282;SDS011;11310;51.528;21.204;2022-11-03T08:54:20;11.98;;;3.67;;
22282;SDS011;11310;51.528;21.204;2022-11-03T08:56:49;8.48;;;3.60;;
22282;SDS011;11310;51.528;21.204;2022-11-03T08:59:19;14.32;;;3.50;;
22282;SDS011;11310;51.528;21.204;2022-11-03T09:01:48;10.02;;;3.60;;
22282;SDS011;11310;51.528;21.204;2022-11-03T09:04:18;12.73;;;3.58;;
22282;SDS011;11310;51.528;21.204;2022-11-03T09:06:47;9.80;;;3.40;;
22282;SDS011;11310;51.528;21.204;2022-11-03T09:09:17;11.05;;;3.53;;
22282;SDS011;11310;51.528;21.204;2022-11-03T09:12:07;11.40;;;3.33;;
22282;SDS011;11310;51.528;21.204;2022-11-03T09:14:36;9.35;;;3.08;;
22282;SDS011;11310;51.528;21.204;2022-11-03T09:17:05;10.20;;;3.50;;
22282;SDS011;11310;51.528;21.204;2022-11-03T09:19:35;10.25;;;3.38;;
22282;SDS011;11310;51.528;21.204;2022-11-03T09:22:04;8.27;;;3.25;;
22282;SDS011;11310;51.528;21.204;2022-11-03T09:24:34;10.48;;;3.03;;
22282;SDS011;11310;51.528;21.204;2022-11-03T09:27:04;8.80;;;3.17;;
22282;SDS011;11310;51.528;21.204;2022-11-03T09:29:33;8.52;;;2.88;;
22282;SDS011;11310;51.528;21.204;2022-11-03T09:32:22;6.47;;;2.53;;
22282;SDS011;11310;51.528;21.204;2022-11-03T09:34:52;10.30;;;2.95;;
22282;SDS011;11310;51.528;21.204;2022-11-03T09:37:21;16.63;;;3.20;;
22282;SDS011;11310;51.528;21.204;2022-11-03T09:39:52;11.93;;;3.03;;
22282;SDS011;11310;51.528;21.204;2022-11-03T09:42:22;7.13;;;2.60;;
22282;SDS011;11310;51.528;21.204;2022-11-03T09:44:52;10.98;;;3.28;;
22282;SDS011;11310;51.528;21.204;2022-11-03T09:47:22;7.70;;;2.65;;
22282;SDS011;11310;51.528;21.204;2022-11-03T09:49:55;9.95;;;2.75;;
22282;SDS011;11310;51.528;21.204;2022-11-03T09:52:26;10.35;;;3.35;;
22282;SDS011;11310;51.528;21.204;2022-11-03T09:54:56;13.23;;;2.67;;
22282;SDS011;11310;51.528;21.204;2022-11-03T09:57:26;8.32;;;2.95;;
22282;SDS011;11310;51.528;21.204;2022-11-03T09:59:55;8.00;;;2.20;;
22282;SDS011;11310;51.528;21.204;2022-11-03T10:02:26;8.20;;;2.55;;
22282;SDS011;11310;51.528;21.204;2022-11-03T10:04:58;8.45;;;2.78;;
22282;SDS011;11310;51.528;21.204;2022-11-03T10:07:36;11.75;;;2.55;;
22282;SDS011;11310;51.528;21.204;2022-11-03T10:10:12;10.98;;;2.53;;
22282;SDS011;11310;51.528;21.204;2022-11-03T10:12:44;8.82;;;2.20;;
22282;SDS011;11310;51.528;21.204;2022-11-03T10:15:16;6.93;;;2.15;;
22282;SDS011;11310;51.528;21.204;2022-11-03T10:17:46;8.10;;;2.42;;
22282;SDS011;11310;51.528;21.204;2022-11-03T10:20:18;7.72;;;2.35;;
22282;SDS011;11310;51.528;21.204;2022-11-03T10:22:49;9.63;;;2.80;;
22282;SDS011;11310;51.528;21.204;2022-11-03T10:28:14;7.43;;;2.25;;
22282;SDS011;11310;51.528;21.204;2022-11-03T10:30:52;9.63;;;2.47;;
22282;SDS011;11310;51.528;21.204;2022-11-03T10:33:40;9.63;;;1.98;;
22282;SDS011;11310;51.528;21.204;2022-11-03T10:36:21;10.60;;;2.20;;
22282;SDS011;11310;51.528;21.204;2022-11-03T10:38:52;4.03;;;1.38;;
22282;SDS011;11310;51.528;21.204;2022-11-03T10:41:24;6.85;;;1.67;;
22282;SDS011;11310;51.528;21.204;2022-11-03T10:44:02;7.68;;;1.83;;
22282;SDS011;11310;51.528;21.204;2022-11-03T10:46:34;3.90;;;1.60;;
22282;SDS011;11310;51.528;21.204;2022-11-03T10:49:17;11.23;;;2.65;;
22282;SDS011;11310;51.528;21.204;2022-11-03T10:51:48;9.85;;;1.90;;
22282;SDS011;11310;51.528;21.204;2022-11-03T10:54:20;6.60;;;2.28;;
22282;SDS011;11310;51.528;21.204;2022-11-03T10:56:53;7.18;;;2.03;;
22282;SDS011;11310;51.528;21.204;2022-11-03T10:59:23;8.10;;;1.80;;
22282;SDS011;11310;51.528;21.204;2022-11-03T11:01:58;6.80;;;1.75;;
22282;SDS011;11310;51.528;21.204;2022-11-03T11:04:28;8.90;;;2.13;;
22282;SDS011;11310;51.528;21.204;2022-11-03T11:09:29;10.15;;;1.80;;
22282;SDS011;11310;51.528;21.204;2022-11-03T11:12:00;5.03;;;1.33;;
22282;SDS011;11310;51.528;21.204;2022-11-03T11:14:35;6.97;;;1.40;;
22282;SDS011;11310;51.528;21.204;2022-11-03T11:17:13;8.10;;;1.80;;
22282;SDS011;11310;51.528;21.204;2022-11-03T11:20:16;7.03;;;1.10;;
22282;SDS011;11310;51.528;21.204;2022-11-03T11:26:29;5.97;;;1.58;;
22282;SDS011;11310;51.528;21.204;2022-11-03T11:38:52;6.88;;;1.35;;
22282;SDS011;11310;51.528;21.204;2022-11-03T11:47:44;5.28;;;1.20;;
22282;SDS011;11310;51.528;21.204;2022-11-03T11:50:22;6.10;;;1.35;;
22282;SDS011;11310;51.528;21.204;2022-11-03T11:52:59;5.80;;;1.40;;
22282;SDS011;11310;51.528;21.204;2022-11-03T11:55:36;5.35;;;1.15;;
22282;SDS011;11310;51.528;21.204;2022-11-03T11:58:14;3.90;;;1.30;;
22282;SDS011;11310;51.528;21.204;2022-11-03T12:00:52;4.15;;;1.17;;
22282;SDS011;11310;51.528;21.204;2022-11-03T12:03:31;5.55;;;1.13;;
22282;SDS011;11310;51.528;21.204;2022-11-03T12:06:11;6.88;;;1.50;;
22282;SDS011;11310;51.528;21.204;2022-11-03T12:08:41;4.88;;;1.00;;
22282;SDS011;11310;51.528;21.204;2022-11-03T12:11:12;8.02;;;1.45;;
22282;SDS011;11310;51.528;21.204;2022-11-03T12:13:42;2.70;;;1.05;;
22282;SDS011;11310;51.528;21.204;2022-11-03T12:16:29;2.60;;;0.80;;
22282;SDS011;11310;51.528;21.204;2022-11-03T12:22:04;2.70;;;0.80;;
22282;SDS011;11310;51.528;21.204;2022-11-03T12:24:36;6.30;;;1.00;;
22282;SDS011;11310;51.528;21.204;2022-11-03T12:27:19;6.25;;;1.40;;
22282;SDS011;11310;51.528;21.204;2022-11-03T12:30:16;3.17;;;1.05;;
22282;SDS011;11310;51.528;21.204;2022-11-03T12:32:46;4.30;;;0.93;;
22282;SDS011;11310;51.528;21.204;2022-11-03T12:35:16;5.30;;;1.08;;
22282;SDS011;11310;51.528;21.204;2022-11-03T12:37:45;8.73;;;1.65;;
22282;SDS011;11310;51.528;21.204;2022-11-03T12:40:14;4.38;;;1.00;;
22282;SDS011;11310;51.528;21.204;2022-11-03T12:42:44;4.82;;;1.17;;
22282;SDS011;11310;51.528;21.204;2022-11-03T12:45:14;6.65;;;1.60;;
22282;SDS011;11310;51.528;21.204;2022-11-03T12:47:42;5.60;;;1.13;;
22282;SDS011;11310;51.528;21.204;2022-11-03T12:50:12;5.15;;;1.42;;
22282;SDS011;11310;51.528;21.204;2022-11-03T12:52:41;3.97;;;1.20;;
22282;SDS011;11310;51.528;21.204;2022-11-03T12:55:10;4.80;;;1.27;;
22282;SDS011;11310;51.528;21.204;2022-11-03T12:57:39;4.38;;;1.15;;
22282;SDS011;11310;51.528;21.204;2022-11-03T13:00:10;4.78;;;1.20;;
22282;SDS011;11310;51.528;21.204;2022-11-03T13:02:40;4.40;;;1.00;;
22282;SDS011;11310;51.528;21.204;2022-11-03T13:05:10;8.88;;;1.55;;
22282;SDS011;11310;51.528;21.204;2022-11-03T13:07:41;4.45;;;1.08;;
22282;SDS011;11310;51.528;21.204;2022-11-03T13:10:10;4.97;;;1.25;;
22282;SDS011;11310;51.528;21.204;2022-11-03T13:12:38;3.63;;;1.02;;
22282;SDS011;11310;51.528;21.204;2022-11-03T13:15:10;3.88;;;1.15;;
22282;SDS011;11310;51.528;21.204;2022-11-03T13:17:41;4.88;;;1.38;;
22282;SDS011;11310;51.528;21.204;2022-11-03T13:20:30;7.45;;;1.17;;
22282;SDS011;11310;51.528;21.204;2022-11-03T13:22:59;2.47;;;1.15;;
22282;SDS011;11310;51.528;21.204;2022-11-03T13:25:28;5.03;;;1.20;;
22282;SDS011;11310;51.528;21.204;2022-11-03T13:27:58;3.47;;;0.98;;
22282;SDS011;11310;51.528;21.204;2022-11-03T13:30:30;4.07;;;1.23;;
22282;SDS011;11310;51.528;21.204;2022-11-03T13:33:01;5.80;;;1.17;;
22282;SDS011;11310;51.528;21.204;2022-11-03T13:35:31;6.40;;;1.30;;
22282;SDS011;11310;51.528;21.204;2022-11-03T13:38:06;4.53;;;1.08;;
22282;SDS011;11310;51.528;21.204;2022-11-03T13:40:35;4.75;;;1.20;;
22282;SDS011;11310;51.528;21.204;2022-11-03T13:43:26;5.53;;;1.40;;
22282;SDS011;11310;51.528;21.204;2022-11-03T13:45:57;6.18;;;1.33;;
22282;SDS011;11310;51.528;21.204;2022-11-03T13:48:28;5.78;;;1.27;;
22282;SDS011;11310;51.528;21.204;2022-11-03T13:51:17;4.78;;;1.30;;
22282;SDS011;11310;51.528;21.204;2022-11-03T13:53:47;3.92;;;1.05;;
22282;SDS011;11310;51.528;21.204;2022-11-03T13:56:36;5.03;;;1.20;;
22282;SDS011;11310;51.528;21.204;2022-11-03T13:59:25;5.35;;;1.10;;
22282;SDS011;11310;51.528;21.204;2022-11-03T14:01:56;5.07;;;1.23;;
22282;SDS011;11310;51.528;21.204;2022-11-03T14:04:46;8.77;;;1.17;;
22282;SDS011;11310;51.528;21.204;2022-11-03T14:07:16;2.95;;;1.20;;
22282;SDS011;11310;51.528;21.204;2022-11-03T14:09:45;3.38;;;1.13;;
22282;SDS011;11310;51.528;21.204;2022-11-03T14:12:14;7.68;;;1.60;;
22282;SDS011;11310;51.528;21.204;2022-11-03T14:14:57;5.20;;;1.30;;
22282;SDS011;11310;51.528;21.204;2022-11-03T14:17:30;6.65;;;1.60;;
22282;SDS011;11310;51.528;21.204;2022-11-03T14:20:00;6.45;;;1.98;;
22282;SDS011;11310;51.528;21.204;2022-11-03T14:22:30;4.60;;;1.17;;
22282;SDS011;11310;51.528;21.204;2022-11-03T14:24:59;3.92;;;1.40;;
22282;SDS011;11310;51.528;21.204;2022-11-03T14:27:29;5.30;;;1.23;;
22282;SDS011;11310;51.528;21.204;2022-11-03T14:29:58;3.92;;;1.10;;
22282;SDS011;11310;51.528;21.204;2022-11-03T14:32:27;2.60;;;1.02;;
22282;SDS011;11310;51.528;21.204;2022-11-03T14:35:00;8.35;;;1.23;;
22282;SDS011;11310;51.528;21.204;2022-11-03T14:37:33;5.13;;;1.33;;
22282;SDS011;11310;51.528;21.204;2022-11-03T14:40:03;7.47;;;1.45;;
22282;SDS011;11310;51.528;21.204;2022-11-03T14:42:34;3.27;;;1.30;;
22282;SDS011;11310;51.528;21.204;2022-11-03T14:45:03;3.47;;;1.20;;
22282;SDS011;11310;51.528;21.204;2022-11-03T14:47:33;4.50;;;1.23;;
22282;SDS011;11310;51.528;21.204;2022-11-03T14:50:07;5.28;;;1.20;;
22282;SDS011;11310;51.528;21.204;2022-11-03T14:52:37;3.42;;;1.05;;
22282;SDS011;11310;51.528;21.204;2022-11-03T14:55:07;3.70;;;1.02;;
22282;SDS011;11310;51.528;21.204;2022-11-03T14:57:36;3.85;;;1.33;;
22282;SDS011;11310;51.528;21.204;2022-11-03T15:00:06;8.55;;;1.77;;
22282;SDS011;11310;51.528;21.204;2022-11-03T15:02:37;2.85;;;1.08;;
22282;SDS011;11310;51.528;21.204;2022-11-03T15:05:08;7.85;;;1.10;;
22282;SDS011;11310;51.528;21.204;2022-11-03T15:07:58;8.32;;;1.75;;
22282;SDS011;11310;51.528;21.204;2022-11-03T15:10:27;6.47;;;1.60;;
22282;SDS011;11310;51.528;21.204;2022-11-03T15:12:58;8.00;;;1.50;;
22282;SDS011;11310;51.528;21.204;2022-11-03T15:15:27;7.65;;;1.52;;
22282;SDS011;11310;51.528;21.204;2022-11-03T15:17:56;5.32;;;1.40;;
22282;SDS011;11310;51.528;21.204;2022-11-03T15:20:30;6.47;;;1.85;;
22282;SDS011;11310;51.528;21.204;2022-11-03T15:23:02;7.68;;;1.75;;
22282;SDS011;11310;51.528;21.204;2022-11-03T15:25:53;8.45;;;2.20;;
22282;SDS011;11310;51.528;21.204;2022-11-03T15:28:22;5.82;;;1.90;;
22282;SDS011;11310;51.528;21.204;2022-11-03T15:30:52;9.88;;;2.42;;
22282;SDS011;11310;51.528;21.204;2022-11-03T15:33:22;14.75;;;2.88;;
22282;SDS011;11310;51.528;21.204;2022-11-03T15:35:53;11.45;;;3.22;;
22282;SDS011;11310;51.528;21.204;2022-11-03T15:38:25;10.60;;;2.83;;
22282;SDS011;11310;51.528;21.204;2022-11-03T15:40:54;10.80;;;3.38;;
22282;SDS011;11310;51.528;21.204;2022-11-03T15:43:42;9.52;;;3.33;;